Stations météo

réclame
Mon MeteoGroup
Halmstad, Suède (2604): Température de l'air & dewpoint: 09.08.2020 01:00:00 - 15.08.2020 01:00:00 (CEST)Halmstad, Suède (2604): Vitesse du vent: 09.08.2020 01:00:00 - 15.08.2020 01:00:00 (CEST)Halmstad, Suède (2604): Direction du vent: 09.08.2020 01:00:00 - 15.08.2020 01:00:00 (CEST)Halmstad, Suède (2604): visibility: 09.08.2020 01:00:00 - 15.08.2020 01:00:00 (CEST)
Date & Time tt [°C] td [°C] ff [km/h] ff [knt] dd vv [km]
15.08.2020 01:00:00 - - - - - -
15.08.2020 00:00:00 19,0 14,0 4 2 E 10
14.08.2020 23:00:00 21,0 13,0 8 4 ENE 10
14.08.2020 22:00:00 22,0 13,0 5 3 N 10
14.08.2020 21:00:00 22,0 14,0 5 3 WNW 10
14.08.2020 20:00:00 23,0 15,0 11 6 WNW 10
14.08.2020 19:00:00 25,0 15,0 13 7 NW 10
14.08.2020 18:00:00 26,0 15,0 15 8 NW 10
14.08.2020 17:00:00 26,0 15,0 16 9 NW 10
14.08.2020 16:00:00 26,0 17,0 15 8 WNW 10
14.08.2020 15:00:00 26,0 17,0 13 7 W 10
14.08.2020 14:00:00 26,0 17,0 11 6 W 10
14.08.2020 13:00:00 26,0 16,0 8 4 SW 10
14.08.2020 12:00:00 25,0 16,0 5 3 WSW 10
14.08.2020 11:00:00 24,0 16,0 9 5 S 10
14.08.2020 10:00:00 23,0 16,0 4 2 - 10
14.08.2020 09:00:00 21,0 15,0 5 3 ENE 10
14.08.2020 08:00:00 18,0 14,0 8 4 NNE 10
14.08.2020 07:00:00 14,0 12,0 8 4 ENE 10
14.08.2020 06:00:00 14,0 13,0 5 3 E 10
14.08.2020 05:00:00 14,0 13,0 5 3 ENE 10
14.08.2020 04:00:00 16,0 13,0 8 4 ENE 10
14.08.2020 03:00:00 14,0 13,0 2 1 N 10
14.08.2020 02:00:00 16,0 13,0 4 2 ENE 10
14.08.2020 01:00:00 17,0 13,0 4 2 - 10
14.08.2020 00:00:00 18,0 13,0 4 2 - 10
13.08.2020 23:00:00 20,0 13,0 11 6 NE 10
13.08.2020 22:00:00 21,0 13,0 9 5 NNE 10
13.08.2020 21:00:00 22,0 14,0 5 3 N 10
13.08.2020 20:00:00 23,0 14,0 9 5 NNW 10
13.08.2020 19:00:00 24,0 14,0 9 5 NW 10
13.08.2020 18:00:00 25,0 15,0 8 4 NNW 10
13.08.2020 17:00:00 25,0 15,0 11 6 WNW 10
13.08.2020 16:00:00 25,0 14,0 13 7 W 10
13.08.2020 15:00:00 24,0 14,0 16 9 WNW 10
13.08.2020 14:00:00 25,0 15,0 11 6 WSW 10
13.08.2020 13:00:00 24,0 14,0 4 2 - 10
13.08.2020 12:00:00 23,0 14,0 5 3 - 10
13.08.2020 11:00:00 21,0 14,0 8 4 S 10
13.08.2020 10:00:00 21,0 13,0 4 2 - 10
13.08.2020 09:00:00 18,0 12,0 5 3 - 10
13.08.2020 08:00:00 17,0 13,0 4 2 NE 10
13.08.2020 07:00:00 15,0 12,0 4 2 ENE 10
13.08.2020 06:00:00 14,0 12,0 5 3 ENE 6
13.08.2020 05:00:00 13,0 12,0 4 2 ENE 9
13.08.2020 04:00:00 14,0 13,0 5 3 NE 10
13.08.2020 03:00:00 15,0 13,0 5 3 ENE 10
13.08.2020 02:00:00 15,0 12,0 5 3 N 10
13.08.2020 01:00:00 17,0 13,0 8 4 SE 10
13.08.2020 00:00:00 19,0 15,0 9 5 SSE 10
12.08.2020 23:00:00 19,0 14,0 4 2 - 10
12.08.2020 22:00:00 20,0 14,0 5 3 N 10
12.08.2020 21:00:00 22,0 14,0 4 2 NNW 10
12.08.2020 20:00:00 23,0 15,0 8 4 WNW 10
12.08.2020 19:00:00 25,0 13,0 5 3 - 10
12.08.2020 18:00:00 25,0 14,0 8 4 NW 10
12.08.2020 17:00:00 25,0 13,0 11 6 S 10
12.08.2020 16:00:00 25,0 14,0 11 6 S 10
12.08.2020 15:00:00 25,0 13,0 13 7 S 10
12.08.2020 14:00:00 24,0 13,0 11 6 S 10
12.08.2020 13:00:00 24,0 12,0 11 6 S 10
12.08.2020 12:00:00 23,0 12,0 9 5 ESE 10
12.08.2020 11:00:00 22,0 12,0 9 5 E 10
12.08.2020 10:00:00 20,0 14,0 9 5 E 10
12.08.2020 09:00:00 18,0 14,0 5 3 ESE 10
12.08.2020 08:00:00 16,0 13,0 5 3 E 10
12.08.2020 07:00:00 16,0 12,0 9 5 E 10
12.08.2020 06:00:00 15,0 12,0 8 4 E 10
12.08.2020 05:00:00 15,0 13,0 5 3 ENE 10
12.08.2020 04:00:00 16,0 13,0 5 3 NE 10
12.08.2020 03:00:00 17,0 12,0 5 3 E 10
12.08.2020 02:00:00 17,0 12,0 8 4 ESE 10
12.08.2020 01:00:00 18,0 12,0 13 7 SE 10
12.08.2020 00:00:00 19,0 13,0 11 6 SE 10
11.08.2020 23:00:00 20,0 14,0 11 6 SSE 10
11.08.2020 22:00:00 21,0 14,0 13 7 SSE 10
11.08.2020 21:00:00 23,0 15,0 11 6 E 10
11.08.2020 20:00:00 24,0 15,0 8 4 E 10
11.08.2020 19:00:00 25,0 15,0 9 5 E 10
11.08.2020 18:00:00 26,0 16,0 9 5 SSW 10
11.08.2020 17:00:00 26,0 16,0 13 7 S 10
11.08.2020 16:00:00 26,0 16,0 18 10 S 10
11.08.2020 15:00:00 25,0 16,0 9 5 ESE 10
11.08.2020 14:00:00 25,0 15,0 15 8 E 5
11.08.2020 13:00:00 24,0 15,0 15 8 E 10
11.08.2020 12:00:00 23,0 15,0 13 7 E 10
11.08.2020 11:00:00 21,0 14,0 13 7 ESE 10
11.08.2020 10:00:00 20,0 14,0 13 7 ESE 10
11.08.2020 09:00:00 19,0 14,0 11 6 E 10
11.08.2020 08:00:00 18,0 14,0 9 5 E 10
11.08.2020 07:00:00 17,0 14,0 11 6 E 10
11.08.2020 06:00:00 17,0 14,0 9 5 E 10
11.08.2020 05:00:00 17,0 14,0 11 6 E 10
11.08.2020 04:00:00 18,0 15,0 9 5 E 10
11.08.2020 03:00:00 18,0 15,0 8 4 SE 10
11.08.2020 02:00:00 18,0 15,0 8 4 ESE 10
11.08.2020 01:00:00 19,0 15,0 5 3 - 10
11.08.2020 00:00:00 20,0 15,0 11 6 SE 10
10.08.2020 23:00:00 21,0 17,0 15 8 SE 10
10.08.2020 22:00:00 21,0 19,0 11 6 ESE 10
10.08.2020 21:00:00 22,0 19,0 5 3 ESE 10
10.08.2020 20:00:00 23,0 19,0 13 7 SE 10
10.08.2020 19:00:00 24,0 19,0 8 4 ESE 10
10.08.2020 18:00:00 23,0 19,0 13 7 ESE 10
10.08.2020 17:00:00 22,0 18,0 2 1 - 10
10.08.2020 16:00:00 22,0 19,0 9 5 NE 10
10.08.2020 15:00:00 22,0 18,0 9 5 E 10
10.08.2020 14:00:00 20,0 19,0 9 5 ESE 10
10.08.2020 13:00:00 23,0 17,0 22 12 SW 10
10.08.2020 12:00:00 26,0 17,0 15 8 S 10
10.08.2020 11:00:00 25,0 17,0 11 6 SSE 10
10.08.2020 10:00:00 23,0 16,0 11 6 ESE 10
10.08.2020 09:00:00 22,0 16,0 9 5 SE 10
10.08.2020 08:00:00 21,0 16,0 8 4 ESE 10
10.08.2020 07:00:00 18,0 15,0 8 4 NE 10
10.08.2020 06:00:00 18,0 15,0 9 5 E 10
10.08.2020 05:00:00 17,0 15,0 8 4 NNE 10
10.08.2020 04:00:00 18,0 15,0 5 3 E 10
10.08.2020 03:00:00 18,0 16,0 5 3 - 10
10.08.2020 02:00:00 19,0 16,0 4 2 - 10
10.08.2020 01:00:00 21,0 16,0 5 3 - 10
10.08.2020 00:00:00 21,0 16,0 5 3 NNE 10
09.08.2020 23:00:00 23,0 16,0 5 3 ENE 10
09.08.2020 22:00:00 24,0 15,0 5 3 NNW 10
09.08.2020 21:00:00 24,0 15,0 8 4 N 10
09.08.2020 20:00:00 26,0 16,0 9 5 NNW 10
09.08.2020 19:00:00 27,0 16,0 13 7 NNW 10
09.08.2020 18:00:00 27,0 16,0 16 9 WNW 10
09.08.2020 17:00:00 28,0 15,0 16 9 WNW 10
09.08.2020 16:00:00 28,0 15,0 21 11 NW 10
09.08.2020 15:00:00 28,0 16,0 18 10 NW 10
09.08.2020 14:00:00 29,0 17,0 18 10 W 10
09.08.2020 13:00:00 - - - - - -
09.08.2020 12:00:00 28,0 15,0 9 5 N 10
09.08.2020 11:00:00 28,0 15,0 9 5 NE 10
09.08.2020 10:00:00 26,0 17,0 5 3 NNE 10
09.08.2020 09:00:00 23,0 16,0 5 3 N 10
09.08.2020 08:00:00 20,0 15,0 8 4 NNE 10
09.08.2020 07:00:00 16,0 14,0 4 2 - 10
09.08.2020 06:00:00 17,0 14,0 8 4 ENE 10
09.08.2020 05:00:00 18,0 14,0 11 6 ENE 10
09.08.2020 04:00:00 17,0 15,0 8 4 ENE 10
09.08.2020 03:00:00 16,0 14,0 4 2 NE 10
09.08.2020 02:00:00 17,0 15,0 5 3 NNW 10
09.08.2020 01:00:00 20,0 15,0 4 2 E 10

tt = Température de l'air
td = dewpoint
ff = Vitesse du vent
dd = Direction du vent
vv = visibility

stations d'obs. à proximité